createdAt,value
2023-01-20T00:01:37.838Z,99627.77
2023-01-20T00:04:06.382Z,99630.84
2023-01-20T00:06:34.361Z,99631.85
2023-01-20T00:09:04.715Z,99633.88
2023-01-20T00:11:33.204Z,99640.84
2023-01-20T00:14:02.538Z,99644.55
2023-01-20T00:16:32.038Z,99649.34
2023-01-20T00:19:00.671Z,99648.96
2023-01-20T00:21:29.076Z,99654.80
2023-01-20T00:23:57.110Z,99654.41
2023-01-20T00:26:25.908Z,99654.38
2023-01-20T00:28:56.185Z,99659.31
2023-01-20T00:31:28.764Z,99660.70
2023-01-20T00:33:59.000Z,99665.46
2023-01-20T00:36:28.975Z,99669.07
2023-01-20T00:38:57.975Z,99670.56
2023-01-20T00:41:26.048Z,99674.16
2023-01-20T00:43:54.119Z,99676.02
2023-01-20T00:46:23.225Z,99681.11
2023-01-20T00:48:51.310Z,99678.73
2023-01-20T00:51:19.624Z,99685.04
2023-01-20T00:53:47.975Z,99688.60
2023-01-20T00:56:15.843Z,99694.42
2023-01-20T00:58:44.510Z,99701.91
2023-01-20T01:01:13.062Z,99703.77
2023-01-20T01:03:41.318Z,99705.98
2023-01-20T01:06:18.445Z,99707.86
2023-01-20T01:08:46.461Z,99702.73
2023-01-20T01:11:14.867Z,99703.78
2023-01-20T01:13:43.211Z,99710.09
2023-01-20T01:16:15.820Z,99707.86
2023-01-20T01:18:44.307Z,99711.29
2023-01-20T01:21:15.125Z,99713.66
2023-01-20T01:23:43.741Z,99718.63
2023-01-20T01:26:12.631Z,99723.27
2023-01-20T01:28:40.865Z,99724.67
2023-01-20T01:31:10.233Z,99723.34
2023-01-20T01:33:38.607Z,99722.99
2023-01-20T01:36:08.710Z,99727.27
2023-01-20T01:38:36.747Z,99725.88
2023-01-20T01:41:04.940Z,99726.39
2023-01-20T01:43:36.686Z,99724.98
2023-01-20T01:46:06.000Z,99728.04
2023-01-20T01:48:38.657Z,99726.20
2023-01-20T01:51:18.542Z,99723.17
2023-01-20T01:53:53.857Z,99721.51
2023-01-20T01:56:23.877Z,99720.49
2023-01-20T01:58:56.728Z,99720.86
2023-01-20T02:01:26.498Z,99717.09
2023-01-20T02:04:24.062Z,99716.60
2023-01-20T02:06:59.067Z,99716.43
2023-01-20T02:09:27.543Z,99715.41
2023-01-20T02:12:02.496Z,99716.45
2023-01-20T02:14:43.937Z,99719.45
2023-01-20T02:17:26.027Z,99728.84
2023-01-20T02:20:12.792Z,99731.75
2023-01-20T02:23:19.050Z,99731.61
2023-01-20T02:26:05.749Z,99730.95
2023-01-20T02:28:52.113Z,99735.05
2023-01-20T02:31:31.922Z,99736.60
2023-01-20T02:34:20.742Z,99741.41
2023-01-20T02:36:55.375Z,99736.68
2023-01-20T02:39:31.107Z,99738.60
2023-01-20T02:42:08.301Z,99736.02
2023-01-20T02:44:44.900Z,99742.52
2023-01-20T02:47:20.869Z,99738.60
2023-01-20T02:50:04.893Z,99736.92
2023-01-20T02:52:37.361Z,99732.68
2023-01-20T02:55:10.864Z,99730.27
2023-01-20T02:57:50.561Z,99729.98
2023-01-20T03:00:25.882Z,99728.07
2023-01-20T03:02:57.543Z,99729.75
2023-01-20T03:05:31.851Z,99733.66
2023-01-20T03:08:04.256Z,99743.35
2023-01-20T03:10:35.232Z,99751.02
2023-01-20T03:13:13.806Z,99752.91
2023-01-20T03:16:02.874Z,99754.59
2023-01-20T03:18:33.885Z,99755.95
2023-01-20T03:21:03.448Z,99763.27
2023-01-20T03:23:35.263Z,99768.70
2023-01-20T03:26:07.591Z,99773.09
2023-01-20T03:28:35.702Z,99775.65
2023-01-20T03:31:13.624Z,99773.73
2023-01-20T03:33:43.224Z,99775.77
2023-01-20T03:36:12.480Z,99776.29
2023-01-20T03:38:40.412Z,99779.54
2023-01-20T03:41:44.931Z,99777.17
2023-01-20T03:44:50.495Z,99784.48
2023-01-20T03:47:33.137Z,99792.09
2023-01-20T03:50:06.968Z,99792.08
2023-01-20T03:52:47.161Z,99789.52
2023-01-20T03:55:20.729Z,99793.09
2023-01-20T03:57:58.583Z,99802.31
2023-01-20T04:05:11.345Z,99811.83
2023-01-20T04:07:40.545Z,99811.15
2023-01-20T04:10:12.929Z,99809.81
2023-01-20T04:12:40.943Z,99813.09
2023-01-20T04:15:10.775Z,99818.04
2023-01-20T04:17:38.726Z,99822.83
2023-01-20T04:20:10.451Z,99825.70
2023-01-20T04:22:49.126Z,99826.08
2023-01-20T04:25:30.197Z,99833.02
2023-01-20T04:27:58.415Z,99838.31
2023-01-20T04:34:40.010Z,99847.88
2023-01-20T04:37:08.262Z,99856.84
2023-01-20T04:39:36.157Z,99860.40
2023-01-20T04:42:04.948Z,99866.16
2023-01-20T04:44:32.977Z,99878.90
2023-01-20T04:47:01.024Z,99879.91
2023-01-20T04:49:28.994Z,99888.07
2023-01-20T04:51:56.770Z,99898.78
2023-01-20T04:54:24.603Z,99902.86
2023-01-20T04:56:52.563Z,99905.89
2023-01-20T04:59:20.437Z,99906.80
2023-01-20T05:01:48.493Z,99903.63
2023-01-20T05:04:16.385Z,99901.13
2023-01-20T05:06:45.080Z,99893.86
2023-01-20T05:09:15.509Z,99896.19
2023-01-20T05:11:44.138Z,99904.99
2023-01-20T05:14:13.032Z,99914.35
2023-01-20T05:16:41.026Z,99913.55
2023-01-20T05:19:24.172Z,99914.76
2023-01-20T05:22:03.964Z,99917.71
2023-01-20T05:24:31.900Z,99917.15
2023-01-20T05:27:01.869Z,99926.13
2023-01-20T05:29:30.391Z,99922.52
2023-01-20T05:31:58.257Z,99927.97
2023-01-20T05:34:26.086Z,99927.44
2023-01-20T05:36:54.905Z,99932.70
2023-01-20T05:39:22.953Z,99936.48
2023-01-20T05:41:51.014Z,99942.92
2023-01-20T05:44:19.506Z,99945.30
2023-01-20T05:46:47.471Z,99948.23
2023-01-20T05:49:15.393Z,99954.86
2023-01-20T05:51:43.380Z,99961.63
2023-01-20T05:54:11.345Z,99972.34
2023-01-20T05:56:39.568Z,99974.85
2023-01-20T05:59:08.161Z,99980.48
2023-01-20T06:01:36.461Z,99988.48
2023-01-20T06:04:04.602Z,99999.74
2023-01-20T06:06:32.776Z,100003.04
2023-01-20T06:09:00.939Z,100013.20
2023-01-20T06:11:29.022Z,100019.09
2023-01-20T06:13:56.869Z,100021.11
2023-01-20T06:16:24.766Z,100023.36
2023-01-20T06:18:52.756Z,100027.70
2023-01-20T06:21:20.818Z,100031.83
2023-01-20T06:23:48.659Z,100030.80
2023-01-20T06:26:16.805Z,100032.99
2023-01-20T06:28:44.915Z,100047.97
2023-01-20T06:31:15.805Z,100048.45
2023-01-20T06:33:43.816Z,100051.35
2023-01-20T06:36:14.020Z,100051.90
2023-01-20T06:38:42.055Z,100053.61
2023-01-20T06:41:11.254Z,100063.40
2023-01-20T06:43:40.349Z,100061.59
2023-01-20T06:46:12.337Z,100057.73
2023-01-20T06:48:41.228Z,100062.05
2023-01-20T06:51:14.938Z,100069.80
2023-01-20T06:53:43.441Z,100073.42
2023-01-20T06:56:15.535Z,100073.64
2023-01-20T06:58:43.777Z,100072.48
2023-01-20T07:01:15.196Z,100069.77
2023-01-20T07:03:46.102Z,100074.23
2023-01-20T07:06:16.193Z,100077.52
2023-01-20T07:08:45.590Z,100086.55
2023-01-20T07:11:13.518Z,100092.74
2023-01-20T07:13:41.613Z,100099.92
2023-01-20T07:16:11.579Z,100107.09
2023-01-20T07:18:41.516Z,100107.66
2023-01-20T07:21:11.706Z,100106.83
2023-01-20T07:23:39.972Z,100108.56
2023-01-20T07:26:10.521Z,100110.48
2023-01-20T07:28:38.596Z,100116.13
2023-01-20T07:31:14.940Z,100115.46
2023-01-20T07:33:43.344Z,100113.45
2023-01-20T07:36:12.763Z,100116.96
2023-01-20T07:38:41.340Z,100115.55
2023-01-20T07:41:20.357Z,100116.10
2023-01-20T07:43:50.571Z,100118.73
2023-01-20T07:46:19.681Z,100117.95
2023-01-20T07:48:47.699Z,100110.17
2023-01-20T07:51:16.776Z,100115.01
2023-01-20T07:53:47.377Z,100118.46
2023-01-20T07:56:25.011Z,100120.73
2023-01-20T07:58:54.799Z,100117.70
2023-01-20T08:01:28.075Z,100121.33
2023-01-20T08:03:57.343Z,100119.13
2023-01-20T08:06:26.787Z,100123.95
2023-01-20T08:08:57.679Z,100124.68
2023-01-20T08:11:26.935Z,100123.88
2023-01-20T08:13:55.067Z,100128.34
2023-01-20T08:16:23.219Z,100129.88
2023-01-20T08:18:53.896Z,100132.81
2023-01-20T08:21:24.846Z,100134.35
2023-01-20T08:23:55.541Z,100128.92
2023-01-20T08:26:28.357Z,100126.70
2023-01-20T08:29:06.856Z,100123.66
2023-01-20T08:31:35.686Z,100127.70
2023-01-20T08:34:03.802Z,100129.04
2023-01-20T08:36:34.917Z,100130.40
2023-01-20T08:39:06.237Z,100134.81
2023-01-20T08:41:37.213Z,100136.14
2023-01-20T08:44:07.770Z,100139.71
2023-01-20T08:46:39.849Z,100142.74
2023-01-20T08:49:12.927Z,100145.11
2023-01-20T08:51:42.366Z,100148.84
2023-01-20T08:54:10.562Z,100151.54
2023-01-20T08:56:38.735Z,100151.33
2023-01-20T08:59:07.294Z,100149.11
2023-01-20T09:01:38.525Z,100148.27
2023-01-20T09:04:07.673Z,100146.64
2023-01-20T09:06:45.099Z,100144.38
2023-01-20T09:09:15.088Z,100144.98
2023-01-20T09:11:50.459Z,100151.61
2023-01-20T09:14:23.561Z,100151.54
2023-01-20T09:16:51.599Z,100156.80
2023-01-20T09:19:19.552Z,100156.23
2023-01-20T09:21:47.447Z,100157.27
2023-01-20T09:24:15.462Z,100165.51
2023-01-20T09:26:43.450Z,100166.55
2023-01-20T09:29:13.522Z,100169.48
2023-01-20T09:31:59.598Z,100171.59
2023-01-20T09:34:29.473Z,100176.02
2023-01-20T09:37:19.641Z,100174.06
2023-01-20T09:40:06.860Z,100178.42
2023-01-20T09:43:08.508Z,100187.16
2023-01-20T09:45:44.580Z,100185.55
2023-01-20T09:48:34.015Z,100189.08
2023-01-20T09:51:30.473Z,100187.45
2023-01-20T09:54:14.292Z,100190.46
2023-01-20T09:56:47.963Z,100189.89
2023-01-20T09:59:25.204Z,100190.08
2023-01-20T10:01:57.812Z,100192.20
2023-01-20T10:04:50.028Z,100194.50
2023-01-20T10:07:29.823Z,100191.83
2023-01-20T10:10:09.535Z,100188.63
2023-01-20T10:13:21.947Z,100177.87
2023-01-20T10:15:57.239Z,100175.95
2023-01-20T10:18:49.311Z,100179.63
2023-01-20T10:21:28.872Z,100182.32
2023-01-20T10:24:07.476Z,100185.00
2023-01-20T10:26:47.562Z,100192.27
2023-01-20T10:29:27.442Z,100194.95
2023-01-20T10:32:05.919Z,100199.59
2023-01-20T10:34:47.912Z,100202.86
2023-01-20T10:37:16.781Z,100204.84
2023-01-20T10:40:14.475Z,100209.07
2023-01-20T10:42:48.868Z,100211.77
2023-01-20T10:45:32.396Z,100216.66
2023-01-20T10:48:41.142Z,100221.61
2023-01-20T10:51:13.528Z,100219.11
2023-01-20T10:53:44.197Z,100220.00
2023-01-20T10:56:34.237Z,100222.02
2023-01-20T10:59:13.880Z,100221.63
2023-01-20T11:04:38.126Z,100217.38
2023-01-20T11:07:09.835Z,100218.46
2023-01-20T11:09:38.034Z,100218.85
2023-01-20T11:12:23.212Z,100216.23
2023-01-20T11:14:53.844Z,100216.52
2023-01-20T11:17:21.940Z,100211.09
2023-01-20T11:19:53.419Z,100211.25
2023-01-20T11:22:29.690Z,100212.56
2023-01-20T11:25:04.123Z,100217.10
2023-01-20T11:27:41.455Z,100222.65
2023-01-20T11:30:32.077Z,100224.61
2023-01-20T11:33:28.191Z,100230.28
2023-01-20T11:36:01.913Z,100235.27
2023-01-20T11:38:32.602Z,100233.53
2023-01-20T11:41:00.573Z,100238.45
2023-01-20T11:43:35.691Z,100245.24
2023-01-20T11:46:20.077Z,100252.54
2023-01-20T11:48:48.712Z,100251.30
2023-01-20T11:51:25.425Z,100254.82
2023-01-20T11:54:08.295Z,100254.11
2023-01-20T11:56:41.986Z,100252.27
2023-01-20T11:59:31.124Z,100253.50
2023-01-20T12:02:09.767Z,100246.08
2023-01-20T12:04:46.339Z,100238.23
2023-01-20T12:07:18.870Z,100242.45
2023-01-20T12:09:51.352Z,100243.29
2023-01-20T12:12:48.324Z,100243.75
2023-01-20T12:15:25.550Z,100241.66
2023-01-20T12:18:00.990Z,100243.55
2023-01-20T12:20:57.769Z,100247.59
2023-01-20T12:24:20.989Z,100254.84
2023-01-20T12:26:49.846Z,100257.77
2023-01-20T12:29:26.037Z,100266.08
2023-01-20T12:31:54.569Z,100265.52
2023-01-20T12:34:29.749Z,100260.45
2023-01-20T12:37:13.396Z,100261.18
2023-01-20T12:39:41.453Z,100260.09
2023-01-20T12:42:21.324Z,100263.23
2023-01-20T12:45:18.248Z,100265.27
2023-01-20T12:48:10.088Z,100259.79
2023-01-20T12:51:05.994Z,100261.98
2023-01-20T12:54:00.044Z,100261.55
2023-01-20T12:56:50.529Z,100266.46
2023-01-20T12:59:41.754Z,100266.42
2023-01-20T13:02:43.165Z,100267.43
2023-01-20T13:05:44.992Z,100263.17
2023-01-20T13:08:28.837Z,100262.77
2023-01-20T13:11:21.009Z,100265.23
2023-01-20T13:14:07.553Z,100269.41
2023-01-20T13:17:01.122Z,100272.87
2023-01-20T13:19:33.230Z,100272.98
2023-01-20T13:22:08.418Z,100271.84
2023-01-20T13:24:37.552Z,100278.77
2023-01-20T13:27:06.102Z,100281.83
2023-01-20T13:29:36.967Z,100277.08
2023-01-20T13:32:35.260Z,100273.33
2023-01-20T13:35:35.319Z,100275.52
2023-01-20T13:38:03.567Z,100273.75
2023-01-20T13:40:37.418Z,100273.02
2023-01-20T13:43:28.215Z,100271.49
2023-01-20T13:46:05.810Z,100271.55
2023-01-20T13:48:36.221Z,100280.71
2023-01-20T13:51:36.372Z,100277.04
2023-01-20T13:54:23.176Z,100269.09
2023-01-20T13:56:52.128Z,100271.33
2023-01-20T13:59:19.957Z,100270.15
2023-01-20T14:01:47.828Z,100270.27
2023-01-20T14:04:18.953Z,100271.23
2023-01-20T14:06:52.514Z,100274.32
2023-01-20T14:09:26.138Z,100281.79
2023-01-20T14:11:57.218Z,100284.63
2023-01-20T14:14:26.756Z,100284.36
2023-01-20T14:16:56.354Z,100293.90
2023-01-20T14:19:27.593Z,100297.61
2023-01-20T14:21:57.842Z,100298.22
2023-01-20T14:24:38.064Z,100305.52
2023-01-20T14:27:17.560Z,100312.74
2023-01-20T14:29:47.092Z,100314.36
2023-01-20T14:32:22.179Z,100313.94
2023-01-20T14:34:52.094Z,100316.30
2023-01-20T14:37:35.375Z,100315.23
2023-01-20T14:40:31.469Z,100313.14
2023-01-20T14:43:02.012Z,100323.34
2023-01-20T14:45:32.389Z,100323.13
2023-01-20T14:48:02.695Z,100325.95
2023-01-20T14:50:31.300Z,100332.30
2023-01-20T14:53:00.513Z,100340.64
2023-01-20T14:55:35.642Z,100354.85
2023-01-20T14:58:14.306Z,100366.04
2023-01-20T15:01:00.668Z,100372.03
2023-01-20T15:03:29.924Z,100366.33
2023-01-20T15:06:14.990Z,100370.49
2023-01-20T15:09:04.462Z,100374.38
2023-01-20T15:11:34.546Z,100371.16
2023-01-20T15:14:03.656Z,100368.50
2023-01-20T15:16:44.191Z,100367.63
2023-01-20T15:19:15.372Z,100360.40
2023-01-20T15:21:56.452Z,100365.59
2023-01-20T15:24:30.681Z,100374.36
2023-01-20T15:27:01.409Z,100375.64
2023-01-20T15:29:36.720Z,100377.28
2023-01-20T15:32:12.569Z,100381.64
2023-01-20T15:34:40.874Z,100382.93
2023-01-20T15:37:21.359Z,100384.37
2023-01-20T15:39:49.517Z,100388.17
2023-01-20T15:42:18.961Z,100394.17
2023-01-20T15:44:47.009Z,100398.83
2023-01-20T15:47:26.107Z,100398.48
2023-01-20T15:49:59.661Z,100398.28
2023-01-20T15:52:27.507Z,100397.34
2023-01-20T15:54:55.394Z,100392.59
2023-01-20T15:57:23.515Z,100389.27
2023-01-20T15:59:51.287Z,100387.93
2023-01-20T16:02:21.011Z,100388.71
2023-01-20T16:04:50.016Z,100390.39
2023-01-20T16:07:20.496Z,100391.14
2023-01-20T16:09:49.229Z,100385.64
2023-01-20T16:12:18.518Z,100386.52
2023-01-20T16:14:46.457Z,100385.45
2023-01-20T16:17:17.183Z,100382.63
2023-01-20T16:19:45.360Z,100381.75
2023-01-20T16:22:14.133Z,100391.20
2023-01-20T16:24:45.368Z,100395.94
2023-01-20T16:27:22.833Z,100400.91
2023-01-20T16:29:50.780Z,100404.10
2023-01-20T16:32:22.391Z,100401.28
2023-01-20T16:34:51.548Z,100405.27
2023-01-20T16:37:19.319Z,100406.38
2023-01-20T16:39:47.262Z,100411.11
2023-01-20T16:42:16.041Z,100415.27
2023-01-20T16:44:44.019Z,100417.13
2023-01-20T16:47:12.207Z,100418.42
2023-01-20T16:49:40.187Z,100426.61
2023-01-20T16:52:08.301Z,100430.09
2023-01-20T16:54:36.127Z,100428.90
2023-01-20T16:57:04.078Z,100430.40
2023-01-20T16:59:31.844Z,100435.00
2023-01-20T17:01:59.680Z,100436.17
2023-01-20T17:04:27.495Z,100438.13
2023-01-20T17:06:55.538Z,100440.05
2023-01-20T17:09:23.435Z,100440.33
2023-01-20T17:11:51.368Z,100443.27
2023-01-20T17:14:19.418Z,100440.11
2023-01-20T17:16:47.348Z,100443.06
2023-01-20T17:19:17.615Z,100449.02
2023-01-20T17:21:45.588Z,100454.59
2023-01-20T17:24:13.447Z,100450.84
2023-01-20T17:26:41.493Z,100455.15
2023-01-20T17:29:14.027Z,100456.11
2023-01-20T17:31:42.954Z,100459.23
2023-01-20T17:34:11.385Z,100464.21
2023-01-20T17:36:39.291Z,100468.00
2023-01-20T17:39:07.968Z,100468.04
2023-01-20T17:41:36.768Z,100467.15
2023-01-20T17:44:06.160Z,100470.91
2023-01-20T17:46:34.053Z,100474.20
2023-01-20T17:49:04.788Z,100477.77
2023-01-20T17:51:41.303Z,100480.50
2023-01-20T17:54:09.624Z,100483.84
2023-01-20T17:56:37.617Z,100489.61
2023-01-20T17:59:06.010Z,100491.47
2023-01-20T18:01:34.094Z,100488.92
2023-01-20T18:04:04.436Z,100490.58
2023-01-20T18:06:35.105Z,100485.34
2023-01-20T18:09:04.476Z,100478.59
2023-01-20T18:11:36.111Z,100484.84
2023-01-20T18:14:05.733Z,100486.21
2023-01-20T18:16:39.679Z,100488.77
2023-01-20T18:19:11.290Z,100488.11
2023-01-20T18:21:41.168Z,100488.33
2023-01-20T18:24:10.861Z,100484.92
2023-01-20T18:26:40.565Z,100484.00
2023-01-20T18:29:13.922Z,100487.25
2023-01-20T18:31:43.019Z,100484.44
2023-01-20T18:34:13.163Z,100483.66
2023-01-20T18:36:46.012Z,100488.32
2023-01-20T18:39:19.635Z,100495.23
2023-01-20T18:41:48.826Z,100499.18
2023-01-20T18:44:19.165Z,100493.52
2023-01-20T18:46:47.367Z,100496.14
2023-01-20T18:49:16.815Z,100495.08
2023-01-20T18:54:47.040Z,100501.73
2023-01-20T18:57:14.895Z,100505.77
2023-01-20T18:59:43.346Z,100509.02
2023-01-20T19:04:35.830Z,100503.95
2023-01-20T19:07:03.847Z,100503.55
2023-01-20T19:09:31.761Z,100510.66
2023-01-20T19:11:59.735Z,100508.41
2023-01-20T19:14:27.833Z,100508.08
2023-01-20T19:16:55.935Z,100507.06
2023-01-20T19:19:23.852Z,100509.58
2023-01-20T19:21:52.709Z,100504.05
2023-01-20T19:24:21.750Z,100510.52
2023-01-20T19:26:50.108Z,100507.26
2023-01-20T19:29:18.915Z,100507.36
2023-01-20T19:31:47.637Z,100509.44
2023-01-20T19:34:16.070Z,100504.41
2023-01-20T19:36:44.164Z,100503.48
2023-01-20T19:39:12.166Z,100500.90
2023-01-20T19:41:41.057Z,100500.01
2023-01-20T19:44:11.171Z,100498.30
2023-01-20T19:46:45.815Z,100503.34
2023-01-20T19:49:13.898Z,100501.91
2023-01-20T19:51:41.842Z,100500.61
2023-01-20T19:54:12.679Z,100498.92
2023-01-20T19:56:41.319Z,100502.06
2023-01-20T19:59:12.355Z,100495.02
2023-01-20T20:01:40.440Z,100495.92
2023-01-20T20:04:13.030Z,100486.24
2023-01-20T20:06:48.471Z,100486.52
2023-01-20T20:09:20.040Z,100487.50
2023-01-20T20:11:48.423Z,100488.41
2023-01-20T20:14:19.112Z,100485.70
2023-01-20T20:16:48.388Z,100485.16
2023-01-20T20:19:19.801Z,100481.21
2023-01-20T20:21:47.888Z,100482.00
2023-01-20T20:24:17.654Z,100478.03
2023-01-20T20:26:46.856Z,100484.96
2023-01-20T20:29:17.011Z,100479.33
2023-01-20T20:31:45.374Z,100475.83
2023-01-20T20:34:16.922Z,100473.75
2023-01-20T20:36:45.449Z,100474.80
2023-01-20T20:39:15.609Z,100468.47
2023-01-20T20:42:24.146Z,100465.38
2023-01-20T20:44:52.183Z,100468.92
2023-01-20T20:47:20.462Z,100469.84
2023-01-20T20:49:48.599Z,100460.73
2023-01-20T20:52:16.520Z,100453.09
2023-01-20T20:54:44.412Z,100450.40
2023-01-20T20:57:12.500Z,100459.25
2023-01-20T20:59:58.035Z,100466.59
2023-01-20T21:02:26.827Z,100467.64
2023-01-20T21:04:55.177Z,100466.95
2023-01-20T21:07:25.320Z,100466.89
2023-01-20T21:09:53.476Z,100473.08
2023-01-20T21:12:21.517Z,100473.34
2023-01-20T21:14:49.430Z,100475.98
2023-01-20T21:17:17.656Z,100475.27
2023-01-20T21:19:46.739Z,100470.50
2023-01-20T21:22:14.848Z,100470.02
2023-01-20T21:24:43.037Z,100461.73
2023-01-20T21:27:11.103Z,100454.48
2023-01-20T21:29:39.225Z,100452.59
2023-01-20T21:32:07.367Z,100456.70
2023-01-20T21:34:35.433Z,100459.92
2023-01-20T21:37:18.452Z,100459.23
2023-01-20T21:39:46.613Z,100460.39
2023-01-20T21:42:15.272Z,100455.04
2023-01-20T21:44:43.430Z,100450.46
2023-01-20T21:47:11.663Z,100451.16
2023-01-20T21:49:58.023Z,100443.86
2023-01-20T21:52:41.480Z,100445.09
2023-01-20T21:55:19.663Z,100445.77
2023-01-20T21:57:51.144Z,100449.81
2023-01-20T22:00:20.200Z,100442.96
2023-01-20T22:02:53.989Z,100450.33
2023-01-20T22:05:21.951Z,100451.14
2023-01-20T22:07:50.014Z,100447.98
2023-01-20T22:10:18.501Z,100437.53
2023-01-20T22:12:46.914Z,100442.58
2023-01-20T22:15:15.086Z,100443.04
2023-01-20T22:17:43.575Z,100437.11
2023-01-20T22:20:12.014Z,100439.70
2023-01-20T22:22:40.017Z,100437.80
2023-01-20T22:25:08.356Z,100433.89
2023-01-20T22:27:36.385Z,100431.15
2023-01-20T22:30:04.772Z,100425.21
2023-01-20T22:32:32.721Z,100422.52
2023-01-20T22:35:00.708Z,100421.86
2023-01-20T22:37:31.293Z,100416.77
2023-01-20T22:39:59.368Z,100404.89
2023-01-20T22:42:27.376Z,100406.85
2023-01-20T22:44:55.815Z,100399.70
2023-01-20T22:47:23.829Z,100396.14
2023-01-20T22:49:54.662Z,100389.57
2023-01-20T22:52:26.062Z,100379.25
2023-01-20T22:54:54.095Z,100383.21
2023-01-20T22:57:22.064Z,100382.78
2023-01-20T22:59:50.082Z,100383.98
2023-01-20T23:02:18.035Z,100387.92
2023-01-20T23:04:45.999Z,100382.98
2023-01-20T23:07:14.380Z,100382.84
2023-01-20T23:09:42.541Z,100377.52
2023-01-20T23:12:10.832Z,100378.58
2023-01-20T23:14:57.622Z,100377.08
2023-01-20T23:17:30.917Z,100381.19
2023-01-20T23:19:59.047Z,100392.68
2023-01-20T23:22:27.054Z,100384.39
2023-01-20T23:24:54.967Z,100384.48
2023-01-20T23:27:42.848Z,100381.33
2023-01-20T23:30:11.435Z,100375.48
2023-01-20T23:32:39.493Z,100384.53
2023-01-20T23:35:07.717Z,100383.63
2023-01-20T23:37:35.727Z,100375.55
2023-01-20T23:40:04.275Z,100367.23
2023-01-20T23:42:32.212Z,100370.42
2023-01-20T23:45:00.240Z,100369.27
2023-01-20T23:47:28.213Z,100366.64
2023-01-20T23:49:56.148Z,100367.88
2023-01-20T23:52:26.002Z,100367.59
2023-01-20T23:54:54.078Z,100377.25
2023-01-20T23:57:22.260Z,100377.79
2023-01-20T23:59:50.359Z,100379.08
